Data for 01/29/2010

Time Sea-Level Adjusted Pressure Absolute Pressure Temperature Relative Humidity Dew Point   
(mb) (inHg) (mb) (inHg) (C) (F) (%) (C) (F)
00:05 1021 30.15 850 25.1 -8.5 16.7 89 -10 13.9
00:10 1021 30.15 850 25.1 -8.6 16.6 89 -10 14
00:15 1021 30.15 850 25.1 -8.3 17.1 90 -9.7 14.5
00:20 1021 30.15 850 25.1 -7.8 17.9 89 -9.4 15.1
00:25 1021 30.15 850 25.1 -7.6 18.4 87 -9.3 15.2
00:30 1021 30.15 850 25.1 -7.6 18.4 87 -9.4 15.1
00:35 1021 30.15 850 25.1 -7.6 18.3 88 -9.3 15.2
00:40 1021 30.15 850 25.1 -7.4 18.7 87 -9.2 15.4
00:45 1021 30.15 850 25.1 -7.4 18.6 86 -9.4 15.2
00:50 1021 30.15 850 25.1 -7.7 18.1 86 -9.6 14.7
00:55 1021 30.15 850 25.1 -7.9 17.8 88 -9.6 14.8
01:00 1021 30.15 850 25.1 -8 17.6 87 -9.8 14.4
01:05 1021 30.15 850 25.1 -8.1 17.5 87 -9.8 14.3
01:10 1021 30.15 850 25.1 -8.2 17.2 88 -9.9 14.3
01:15 1021 30.15 850 25.1 -8 17.5 88 -9.8 14.4
01:20 1021 30.15 850 25.1 -8 17.6 87 -9.8 14.4
01:25 1021 30.15 850 25.1 -8.1 17.5 87 -9.9 14.2
01:30 1020 30.12 850 25.1 -7.9 17.8 88 -9.6 14.7
01:35 1020 30.12 850 25.1 -7.7 18.1 86 -9.6 14.7
01:40 1020 30.12 850 25.1 -7.6 18.4 86 -9.5 15
01:45 1020 30.12 850 25.1 -7.6 18.4 86 -9.5 15
01:50 1020 30.12 850 25.1 -7.8 18.1 86 -9.7 14.5
01:55 1020 30.12 850 25.1 -7.9 17.8 87 -9.8 14.4
02:00 1020 30.12 850 25.1 -7.8 18 86 -9.8 14.4
02:05 1020 30.12 850 25.1 -7.8 18 86 -9.7 14.6
02:10 1020 30.12 850 25.1 -7.6 18.4 86 -9.5 15
02:15 1020 30.12 850 25.1 -7.6 18.3 86 -9.6 14.7
02:20 1020 30.12 850 25.1 -7.7 18.1 86 -9.8 14.4
02:25 1020 30.12 849 25.07 -8 17.7 87 -9.8 14.3
02:30 1020 30.12 849 25.07 -8.1 17.3 87 -9.9 14.2
02:35 1020 30.12 849 25.07 -7.9 17.8 88 -9.5 14.8
02:40 1020 30.12 849 25.07 -7.3 18.9 86 -9.2 15.4
02:45 1020 30.12 849 25.07 -6.9 19.6 85 -9 15.8
02:50 1020 30.12 849 25.07 -6.7 20 85 -8.8 16.1
02:55 1020 30.12 849 25.07 -6.6 20.1 85 -8.8 16.2
03:00 1020 30.12 849 25.07 -6.5 20.4 84 -8.7 16.3
03:05 1020 30.12 849 25.07 -6.3 20.7 83 -8.7 16.3
03:10 1020 30.12 849 25.07 -6.4 20.4 83 -8.8 16.1
03:15 1020 30.12 849 25.07 -6.8 19.7 85 -9 15.9
03:20 1020 30.12 849 25.07 -7 19.4 86 -9 15.8
03:25 1020 30.12 849 25.07 -6.9 19.6 85 -9 15.8
03:30 1020 30.12 849 25.07 -6.9 19.7 86 -8.9 16
03:35 1020 30.12 849 25.07 -6.8 19.8 86 -8.8 16.2
03:40 1020 30.12 849 25.07 -6.5 20.4 85 -8.6 16.4
03:45 1020 30.12 849 25.07 -6.3 20.7 84 -8.6 16.6
03:50 1020 30.12 849 25.07 -6.1 21.1 83 -8.5 16.7
03:55 1020 30.12 849 25.07 -5.8 21.6 83 -8.3 17.1
04:00 1020 30.12 849 25.07 -5.7 21.8 82 -8.3 17.1
04:05 1020 30.12 849 25.07 -5.6 21.9 82 -8.3 17.1
04:10 1020 30.12 849 25.07 -5.7 21.8 82 -8.2 17.2
04:15 1020 30.12 849 25.07 -5.7 21.7 82 -8.3 17.1
04:20 1020 30.12 849 25.07 -5.6 21.9 82 -8.2 17.2
04:25 1020 30.12 849 25.07 -5.5 22 82 -8.2 17.3
04:30 1020 30.12 849 25.07 -5.5 22 82 -8.1 17.4
04:35 1020 30.12 849 25.07 -5.5 22.1 82 -8.1 17.5
04:40 1020 30.12 849 25.07 -5.5 22.1 82 -8.1 17.3
04:45 1020 30.12 849 25.07 -5.6 21.9 82 -8.2 17.2
04:50 1020 30.12 849 25.07 -5.9 21.3 83 -8.4 17
04:55 1020 30.12 849 25.07 -6.3 20.6 86 -8.3 17
05:00 1020 30.12 849 25.07 -6.4 20.5 86 -8.4 16.9
05:05 1020 30.12 849 25.07 -6.4 20.5 86 -8.4 16.9
05:10 1020 30.12 849 25.07 -6.3 20.7 86 -8.2 17.2
05:15 1020 30.12 849 25.07 -6 21.1 85 -8.2 17.3
05:20 1020 30.12 849 25.07 -6 21.2 85 -8.2 17.2
05:25 1020 30.12 849 25.07 -6.1 21 81 -8.8 16.1
05:30 1020 30.12 849 25.07 -6.6 20.2 82 -9.2 15.5
05:35 1020 30.12 849 25.07 -7.1 19.3 83 -9.4 15
05:40 1020 30.12 849 25.07 -7.3 18.9 84 -9.5 14.8
05:45 1020 30.12 849 25.07 -7.4 18.8 84 -9.6 14.8
05:50 1020 30.12 849 25.07 -7.4 18.7 85 -9.5 14.9
05:55 1020 30.12 849 25.07 -7.4 18.6 85 -9.5 14.9
06:00 1020 30.12 849 25.07 -7.4 18.6 85 -9.5 14.9
06:05 1020 30.12 849 25.07 -7.5 18.5 86 -9.5 15
06:10 1020 30.12 849 25.07 -7.6 18.4 86 -9.5 14.9
06:15 1020 30.12 849 25.07 -7.7 18.2 87 -9.4 15.1
06:20 1020 30.12 849 25.07 -7.6 18.2 87 -9.4 15.1
06:25 1020 30.12 849 25.07 -7.8 17.9 87 -9.5 14.8
06:30 1020 30.12 849 25.07 -8 17.7 88 -9.6 14.7
06:35 1020 30.12 849 25.07 -8 17.7 89 -9.5 14.9
06:40 1020 30.12 849 25.07 -7.9 17.7 90 -9.4 15.1
06:45 1020 30.12 849 25.07 -7.8 18 90 -9.2 15.4
06:50 1020 30.12 849 25.07 -7.6 18.3 89 -9.2 15.5
06:55 1020 30.12 849 25.07 -7.4 18.7 87 -9.2 15.5
07:00 1020 30.12 849 25.07 -7.2 19.1 87 -8.9 16
07:05 1020 30.12 849 25.07 -6.9 19.7 86 -8.8 16.2
07:10 1020 30.12 849 25.07 -6.5 20.3 84 -8.8 16.2
07:15 1020 30.12 849 25.07 -6.3 20.7 85 -8.5 16.7
07:20 1020 30.12 849 25.07 -6.2 20.9 85 -8.2 17.2
07:25 1020 30.12 849 25.07 -6 21.3 84 -8.2 17.2
07:30 1020 30.12 849 25.07 -5.9 21.5 84 -8.2 17.2
07:35 1020 30.12 849 25.07 -6 21.2 84 -8.2 17.2
07:40 1020 30.12 849 25.07 -6.2 20.9 85 -8.3 17.1
07:45 1020 30.12 849 25.07 -6.5 20.4 86 -8.4 16.9
07:50 1020 30.12 849 25.07 -6.7 20 87 -8.4 16.9
07:55 1020 30.12 849 25.07 -6.6 20.1 88 -8.3 17.1
08:00 1020 30.12 849 25.07 -6.4 20.5 88 -8.1 17.4
08:05 1020 30.12 849 25.07 -6 21.2 87 -7.9 17.8
08:10 1020 30.12 849 25.07 -5.7 21.7 85 -7.9 17.8
08:15 1020 30.12 849 25.07 -5.7 21.8 85 -7.8 18
08:20 1020 30.12 849 25.07 -5.5 22.2 83 -7.9 17.8
08:25 1020 30.12 849 25.07 -5.7 21.8 84 -7.9 17.7
08:30 1020 30.12 849 25.07 -5.5 22.1 84 -7.8 18
08:35 1020 30.12 849 25.07 -5 23.1 82 -7.6 18.3
08:40 1020 30.12 849 25.07 -4.8 23.3 81 -7.6 18.2
08:45 1020 30.12 849 25.07 -4.8 23.4 81 -7.5 18.4
08:50 1020 30.12 849 25.07 -4.9 23.1 83 -7.4 18.6
08:55 1020 30.12 849 25.07 -5 23 84 -7.4 18.7
09:00 1020 30.12 849 25.07 -5.1 22.9 85 -7.3 18.9
09:05 1020 30.12 849 25.07 -5 23.1 84 -7.2 19
09:10 1020 30.12 849 25.07 -4.8 23.3 83 -7.3 18.9
09:15 1020 30.12 849 25.07 -4.6 23.7 83 -7.2 19.1
09:20 1020 30.12 849 25.07 -4.4 24.1 82 -7.1 19.3
09:25 1020 30.12 849 25.07 -4.2 24.5 81 -7 19.5
09:30 1020 30.12 849 25.07 -4 24.8 80 -6.9 19.6
09:35 1020 30.12 849 25.07 -3.7 25.3 80 -6.7 19.9
09:40 1020 30.12 849 25.07 -3.2 26.2 77 -6.7 19.9
09:45 1020 30.12 850 25.1 -2.8 26.9 75 -6.6 20.1
09:50 1020 30.12 850 25.1 -2.7 27.2 75 -6.5 20.4
09:55 1020 30.12 850 25.1 -2.4 27.6 74 -6.4 20.5
10:00 1020 30.12 850 25.1 -1.9 28.6 71 -6.5 20.4
10:05 1020 30.12 850 25.1 -1.8 28.8 71 -6.4 20.4
10:10 1020 30.12 850 25.1 -1.7 28.9 71 -6.2 20.8
10:15 1020 30.12 850 25.1 -1.7 29 70 -6.4 20.5
10:20 1020 30.12 850 25.1 -1.1 30.1 67 -6.5 20.3
10:25 1020 30.12 850 25.1 -0.8 30.6 66 -6.4 20.4
10:30 1020 30.12 850 25.1 -0.7 30.8 66 -6.3 20.7
10:35 1020 30.12 850 25.1 -0.7 30.8 66 -6.3 20.7
10:40 1020 30.12 850 25.1 -0.4 31.3 65 -6.3 20.7
10:45 1020 30.12 850 25.1 -0.3 31.4 65 -6.2 20.8
10:50 1020 30.12 850 25.1 -0.3 31.5 64 -6.2 20.8
10:55 1020 30.12 850 25.1 -0.4 31.3 66 -6 21.2
11:00 1020 30.12 850 25.1 -0.7 30.7 67 -6.1 21
11:05 1020 30.12 850 25.1 -0.6 30.9 66 -6.1 20.9
11:10 1020 30.12 850 25.1 -0.2 31.7 64 -6.1 20.9
11:15 1020 30.12 850 25.1 0.1 32.3 63 -6.1 20.9
11:20 1020 30.12 849 25.07 0.5 32.9 62 -5.9 21.3
11:25 1020 30.12 849 25.07 1.1 34 59 -6.1 21
11:30 1020 30.12 849 25.07 1.6 34.9 57 -6.1 21
11:35 1020 30.12 849 25.07 1.9 35.5 55 -6.1 21
11:40 1020 30.12 849 25.07 2.2 36 55 -6 21.2
11:45 1020 30.12 849 25.07 2.5 36.4 54 -5.9 21.3
11:50 1020 30.12 849 25.07 2.7 36.8 53 -5.9 21.5
11:55 1020 30.12 849 25.07 2.1 35.9 56 -5.8 21.5
12:00 1020 30.12 849 25.07 1.4 34.6 58 -5.9 21.4
12:05 1020 30.12 849 25.07 1.1 34 61 -5.7 21.8
12:10 1020 30.12 849 25.07 1 33.8 60 -6 21.2
12:15 1020 30.12 849 25.07 0.9 33.6 61 -5.9 21.4
12:20 1019 30.09 849 25.07 1.7 35 57 -5.9 21.4
12:25 1019 30.09 849 25.07 2 35.6 57 -5.7 21.7
12:30 1019 30.09 848 25.04 1.9 35.4 58 -5.6 22
12:35 1019 30.09 848 25.04 2 35.7 56 -5.9 21.4
12:40 1019 30.09 848 25.04 2.1 35.8 57 -5.6 21.9
12:45 1019 30.09 848 25.04 2.1 35.9 56 -5.8 21.6
12:50 1019 30.09 848 25.04 1.8 35.3 57 -5.9 21.4
12:55 1019 30.09 848 25.04 1.6 34.9 58 -5.7 21.7
13:00 1019 30.09 848 25.04 1.5 34.6 59 -5.8 21.6
13:05 1019 30.09 848 25.04 1.3 34.4 57 -6.2 20.8
13:10 1019 30.09 848 25.04 1.3 34.3 58 -6.2 20.9
13:15 1019 30.09 848 25.04 1.7 35 56 -6.2 20.9
13:20 1019 30.09 848 25.04 2.5 36.5 54 -5.9 21.4
13:25 1019 30.09 848 25.04 2.1 35.8 58 -5.3 22.4
13:30 1019 30.09 848 25.04 1.7 35.1 58 -5.7 21.7
13:35 1019 30.09 848 25.04 1.4 34.6 58 -5.9 21.4
13:40 1019 30.09 848 25.04 1.2 34.2 58 -6.1 21.1
13:45 1019 30.09 848 25.04 1.1 34 61 -5.6 21.9
13:50 1019 30.09 848 25.04 1.3 34.4 59 -5.7 21.7
13:55 1019 30.09 848 25.04 1.3 34.4 60 -5.5 22
14:00 1019 30.09 848 25.04 1.5 34.7 59 -5.6 21.9
14:05 1019 30.09 848 25.04 1.3 34.4 59 -5.7 21.7
14:10 1019 30.09 848 25.04 -0.1 31.9 67 -5.5 22.1
14:15 1019 30.09 848 25.04 -0.7 30.7 69 -5.8 21.5
14:20 1019 30.09 848 25.04 -0.9 30.3 68 -6.1 20.9
14:25 1019 30.09 848 25.04 -1 30.1 68 -6.3 20.7
14:30 1019 30.09 848 25.04 -0.5 31.2 65 -6.3 20.7
14:35 1019 30.09 848 25.04 0.2 32.4 63 -6 21.2
14:40 1019 30.09 848 25.04 0.3 32.6 63 -5.9 21.3
14:45 1019 30.09 848 25.04 0.1 32.2 62 -6.2 20.8
14:50 1019 30.09 848 25.04 0.3 32.5 62 -6.2 20.8
14:55 1019 30.09 848 25.04 0.2 32.3 64 -5.9 21.4
15:00 1019 30.09 848 25.04 0.2 32.3 62 -6.3 20.7
15:05 1019 30.09 848 25.04 0.2 32.3 62 -6.2 20.8
15:10 1019 30.09 848 25.04 0.4 32.7 61 -6.2 20.8
15:15 1019 30.09 848 25.04 0.3 32.5 62 -6.1 21
15:20 1019 30.09 848 25.04 0.3 32.6 61 -6.3 20.7
15:25 1019 30.09 848 25.04 0.2 32.3 61 -6.4 20.5
15:30 1019 30.09 848 25.04 0.4 32.8 63 -5.9 21.4
15:35 1019 30.09 848 25.04 0.5 33 61 -6.1 21.1
15:40 1019 30.09 848 25.04 0.5 32.8 62 -6.1 21.1
15:45 1019 30.09 848 25.04 0.3 32.6 62 -6 21.2
15:50 1019 30.09 848 25.04 0.6 33.1 60 -6.4 20.5
15:55 1019 30.09 848 25.04 0.5 32.9 61 -6.2 20.8
16:00 1018 30.06 848 25.04 0.4 32.6 63 -5.9 21.3
16:05 1018 30.06 848 25.04 0.4 32.8 63 -5.9 21.5
16:10 1018 30.06 848 25.04 0.3 32.6 63 -5.9 21.4
16:15 1018 30.06 848 25.04 0.2 32.3 66 -5.5 22.2
16:20 1018 30.06 848 25.04 -0 32 69 -5 23
16:25 1019 30.09 848 25.04 -0.1 31.8 70 -4.9 23.1
16:30 1018 30.06 848 25.04 -0.1 31.8 68 -5.2 22.6
16:35 1018 30.06 848 25.04 -0.3 31.5 68 -5.4 22.3
16:40 1018 30.06 848 25.04 -0.5 31 70 -5.4 22.3
16:45 1018 30.06 848 25.04 -0.7 30.8 70 -5.5 22.1
16:50 1018 30.06 848 25.04 -0.8 30.7 70 -5.5 22
16:55 1018 30.06 848 25.04 -0.9 30.5 72 -5.4 22.3
17:00 1018 30.06 848 25.04 -0.7 30.7 69 -5.6 21.8
17:05 1018 30.06 848 25.04 -0.7 30.8 70 -5.5 22.1
17:10 1018 30.06 848 25.04 -0.7 30.7 70 -5.5 22
17:15 1018 30.06 848 25.04 -0.8 30.5 70 -5.7 21.8
17:20 1018 30.06 848 25.04 -1 30.2 72 -5.5 22.2
17:25 1018 30.06 848 25.04 -1 30.2 69 -6 21.2
17:30 1018 30.06 848 25.04 -1.1 30 69 -6.1 21
17:35 1018 30.06 848 25.04 -1 30.1 70 -5.8 21.5
17:40 1018 30.06 848 25.04 -1.1 30 70 -5.9 21.3
17:45 1018 30.06 848 25.04 -1.1 30 71 -5.7 21.7
17:50 1018 30.06 848 25.04 -1.1 30 72 -5.6 21.9
17:55 1018 30.06 848 25.04 -1.1 30.1 68 -6.2 20.8
18:00 1018 30.06 848 25.04 -1 30.1 69 -6 21.2
18:05 1018 30.06 847 25.01 -0.9 30.4 69 -5.8 21.5
18:10 1018 30.06 847 25.01 -0.9 30.4 69 -5.9 21.4
18:15 1018 30.06 847 25.01 -1 30.3 68 -6.1 21.1
18:20 1018 30.06 847 25.01 -0.9 30.4 69 -5.9 21.4
18:25 1018 30.06 847 25.01 -0.9 30.5 70 -5.7 21.7
18:30 1018 30.06 847 25.01 -0.8 30.5 69 -5.7 21.7
18:35 1018 30.06 847 25.01 -0.7 30.8 68 -5.9 21.4
18:40 1018 30.06 847 25.01 -0.5 31 68 -5.7 21.7
18:45 1018 30.06 847 25.01 -0.5 31.1 68 -5.6 21.8
18:50 1018 30.06 847 25.01 -0.6 30.9 69 -5.6 22
18:55 1018 30.06 847 25.01 -0.8 30.6 69 -5.7 21.7
19:00 1018 30.06 847 25.01 -0.9 30.4 71 -5.5 22.1
19:05 1018 30.06 847 25.01 -0.9 30.3 72 -5.4 22.3
19:10 1018 30.06 847 25.01 -1.1 30 78 -4.4 24.1
19:15 1018 30.06 847 25.01 -1 30.2 76 -4.7 23.6
19:20 1018 30.06 847 25.01 -1.1 30.1 77 -4.6 23.7
19:25 1018 30.06 847 25.01 -1.2 29.9 77 -4.7 23.5
19:30 1018 30.06 847 25.01 -1.2 29.8 77 -4.8 23.3
19:35 1018 30.06 847 25.01 -1.4 29.4 77 -5 23
19:40 1018 30.06 847 25.01 -1.6 29.2 77 -5.1 22.8
19:45 1018 30.06 847 25.01 -1.9 28.6 77 -5.4 22.2
19:50 1018 30.06 847 25.01 -2.4 27.7 78 -5.7 21.7
19:55 1018 30.06 847 25.01 -2.3 27.9 76 -6 21.3
20:00 1018 30.06 847 25.01 -2.5 27.5 79 -5.7 21.7
20:05 1018 30.06 847 25.01 -2.6 27.4 78 -5.9 21.5
20:10 1018 30.06 847 25.01 -2.7 27.1 79 -5.8 21.5
20:15 1018 30.06 847 25.01 -2.8 27 81 -5.7 21.8
20:20 1018 30.06 847 25.01 -2.6 27.2 81 -5.5 22
20:25 1018 30.06 847 25.01 -2.6 27.3 81 -5.4 22.2
20:30 1017 30.03 847 25.01 -2.6 27.4 83 -5.1 22.8
20:35 1017 30.03 847 25.01 -2.5 27.5 83 -5.1 22.9
20:40 1017 30.03 847 25.01 -2.5 27.5 83 -5 23
20:45 1017 30.03 846 24.98 -2.4 27.7 84 -4.7 23.5
20:50 1017 30.03 847 25.01 -2.4 27.7 84 -4.7 23.5
20:55 1017 30.03 847 25.01 -2.3 27.8 83 -4.8 23.4
21:00 1018 30.06 847 25.01 -2.1 28.2 82 -4.7 23.5
21:05 1018 30.06 847 25.01 -1.9 28.5 81 -4.7 23.5
21:10 1018 30.06 847 25.01 -2 28.4 81 -4.9 23.2
21:15 1018 30.06 847 25.01 -2.3 27.8 80 -5.3 22.5
21:20 1018 30.06 847 25.01 -2.5 27.4 77 -6 21.3
21:25 1018 30.06 847 25.01 -2.9 26.8 76 -6.5 20.3
21:30 1018 30.06 847 25.01 -3.1 26.4 76 -6.7 20
21:35 1018 30.06 847 25.01 -3.5 25.8 77 -6.9 19.6
21:40 1018 30.06 847 25.01 -3.7 25.3 77 -7.2 19.1
21:45 1018 30.06 847 25.01 -3.7 25.3 77 -7.2 19.1
21:50 1018 30.06 847 25.01 -3.6 25.5 77 -7.1 19.2
21:55 1018 30.06 847 25.01 -3.5 25.7 77 -7 19.4
22:00 1018 30.06 847 25.01 -3.6 25.5 77 -7.1 19.3
22:05 1018 30.06 847 25.01 -3.6 25.5 78 -6.9 19.6
22:10 1018 30.06 847 25.01 -3.8 25.2 80 -6.8 19.7
22:15 1018 30.06 847 25.01 -4 24.8 82 -6.7 20
22:20 1018 30.06 847 25.01 -4.4 24.1 83 -6.9 19.6
22:25 1018 30.06 847 25.01 -4.4 24.1 83 -6.9 19.5
22:30 1018 30.06 847 25.01 -4.4 24.1 82 -7 19.4
22:35 1018 30.06 847 25.01 -4.3 24.2 82 -7 19.4
22:40 1018 30.06 847 25.01 -4.1 24.7 81 -6.9 19.6
22:45 1018 30.06 847 25.01 -3.8 25.2 79 -6.9 19.6
22:50 1018 30.06 847 25.01 -3.6 25.5 78 -6.9 19.6
22:55 1018 30.06 847 25.01 -3.6 25.5 79 -6.8 19.8
23:00 1018 30.06 847 25.01 -3.5 25.7 78 -6.8 19.7
23:05 1018 30.06 847 25.01 -3.6 25.5 79 -6.7 19.9
23:10 1018 30.06 847 25.01 -3.7 25.3 80 -6.7 19.9
23:15 1018 30.06 847 25.01 -3.7 25.3 81 -6.5 20.4
23:20 1018 30.06 847 25.01 -3.7 25.3 82 -6.4 20.5
23:25 1018 30.06 847 25.01 -3.7 25.3 82 -6.4 20.4
23:30 1018 30.06 847 25.01 -3.7 25.4 81 -6.4 20.4
23:35 1018 30.06 847 25.01 -3.6 25.5 82 -6.2 20.8
23:40 1018 30.06 847 25.01 -3.5 25.6 83 -6.1 21
23:45 1018 30.06 847 25.01 -3.5 25.7 83 -6 21.3
23:50 1018 30.06 847 25.01 -3.5 25.8 83 -5.9 21.4
23:55 1018 30.06 847 25.01 -3.4 26 83 -5.9 21.4
24:00 1018 30.06 847 25.01 -3.2 26.2 82 -5.9 21.4